Time;durP1;ratioP1;P1;durP2;ratioP2;P2;SDS_P1;SDS_P2;PMS_P1;PMS_P2;Temp;Humidity;BMP_temperature;BMP_pressure;BME280_temperature;BME280_humidity;BME280_pressure;Samples;Min_cycle;Max_cycle;Signal;HPM_P1;HPM_P2
2024/01/09 00:01:30;;;;;;;22.42;5.90;;;-3.00;1.00;;;;;;5036122;28;20196;-81
2024/01/09 00:03:56;;;;;;;22.80;4.80;;;-3.00;1.00;;;;;;5035810;28;20173;-81
2024/01/09 00:06:22;;;;;;;19.73;5.30;;;-2.90;1.00;;;;;;5034873;28;20213;-81
2024/01/09 00:08:51;;;;;;;20.37;4.90;;;-2.90;1.00;;;;;;5035812;28;20396;-81
2024/01/09 00:11:16;;;;;;;25.15;6.55;;;-2.80;1.00;;;;;;5035701;28;20411;-81
2024/01/09 00:13:42;;;;;;;23.50;6.10;;;-2.80;1.00;;;;;;5035566;28;20167;-81
2024/01/09 00:16:08;;;;;;;24.60;6.63;;;-2.80;1.00;;;;;;5035570;28;20191;-81
2024/01/09 00:18:34;;;;;;;24.07;5.93;;;-2.80;1.00;;;;;;5017821;28;20624;-79
2024/01/09 00:20:59;;;;;;;22.57;5.60;;;-2.90;1.00;;;;;;5036025;28;20165;-80
2024/01/09 00:23:25;;;;;;;20.90;6.00;;;-2.90;1.00;;;;;;5035519;28;20172;-80
2024/01/09 00:25:50;;;;;;;19.73;5.60;;;-3.00;1.00;;;;;;5035472;28;20196;-81
2024/01/09 00:28:16;;;;;;;20.90;5.70;;;-3.00;1.00;;;;;;5035593;28;20163;-81
2024/01/09 00:30:42;;;;;;;21.73;5.80;;;-3.00;1.00;;;;;;5035602;28;20160;-81
2024/01/09 00:33:08;;;;;;;23.17;6.97;;;-2.90;1.00;;;;;;5035293;28;20168;-81
2024/01/09 00:35:34;;;;;;;20.50;5.50;;;-2.90;1.00;;;;;;5035592;28;20788;-81
2024/01/09 00:37:59;;;;;;;26.58;6.65;;;-3.00;1.00;;;;;;5035428;28;20171;-81
2024/01/09 00:40:25;;;;;;;19.20;5.83;;;-3.10;1.00;;;;;;5035962;28;20694;-81
2024/01/09 00:42:51;;;;;;;23.40;5.53;;;-3.20;1.00;;;;;;5035653;28;20154;-81
2024/01/09 00:45:16;;;;;;;21.10;5.70;;;-3.20;1.00;;;;;;5017424;28;20412;-80
2024/01/09 00:47:42;;;;;;;19.53;5.00;;;-3.30;1.00;;;;;;5035120;28;20209;-80
2024/01/09 00:50:08;;;;;;;22.80;6.20;;;-3.40;1.00;;;;;;5017884;28;20175;-81
2024/01/09 00:52:34;;;;;;;21.00;6.00;;;-3.60;1.00;;;;;;5017554;28;20164;-81
2024/01/09 00:54:59;;;;;;;23.37;5.93;;;-3.60;1.00;;;;;;5035512;28;20172;-81
2024/01/09 00:57:25;;;;;;;23.30;5.47;;;-3.60;1.00;;;;;;5035304;28;20184;-81
2024/01/09 00:59:51;;;;;;;20.50;5.80;;;-3.50;1.00;;;;;;5017811;28;20178;-81
2024/01/09 01:02:16;;;;;;;26.10;6.90;;;-3.60;1.00;;;;;;5035334;28;20179;-81
2024/01/09 01:04:42;;;;;;;21.23;5.00;;;-3.70;1.00;;;;;;5035088;28;20185;-81
2024/01/09 01:07:08;;;;;;;22.23;5.83;;;-3.70;1.00;;;;;;5035113;28;20205;-80
2024/01/09 01:09:33;;;;;;;25.10;6.83;;;-3.60;1.00;;;;;;5035144;28;20189;-81
2024/01/09 01:11:59;;;;;;;21.00;5.73;;;-3.60;1.00;;;;;;5035078;28;20582;-81
2024/01/09 01:14:24;;;;;;;23.53;6.33;;;-3.50;1.00;;;;;;5034649;28;20171;-81
2024/01/09 01:16:50;;;;;;;24.80;6.03;;;-3.50;1.00;;;;;;5035218;28;20251;-81
2024/01/09 01:19:16;;;;;;;22.67;6.10;;;-3.40;1.00;;;;;;5038595;28;20169;-81
2024/01/09 01:21:41;;;;;;;21.00;5.47;;;-3.30;1.00;;;;;;5038562;28;20172;-81
2024/01/09 01:24:08;;;;;;;20.87;5.63;;;-3.30;1.00;;;;;;5020933;28;20174;-81
2024/01/09 01:26:34;;;;;;;19.77;5.30;;;-3.20;1.00;;;;;;5038470;28;20201;-81
2024/01/09 01:29:00;;;;;;;20.58;5.45;;;-3.20;1.00;;;;;;5039008;28;20168;-80
2024/01/09 01:31:26;;;;;;;21.80;5.77;;;-3.20;1.00;;;;;;5038891;28;20167;-81
2024/01/09 01:33:52;;;;;;;22.23;5.67;;;-3.20;1.00;;;;;;5038724;28;20401;-81
2024/01/09 01:36:17;;;;;;;23.90;6.05;;;-3.30;1.00;;;;;;5020888;28;20688;-81
2024/01/09 01:38:43;;;;;;;20.03;4.97;;;-3.20;1.00;;;;;;5038617;28;20176;-81
2024/01/09 01:41:09;;;;;;;21.70;5.00;;;-3.10;1.00;;;;;;5038532;28;20180;-81
2024/01/09 01:43:35;;;;;;;21.00;5.47;;;-3.20;1.00;;;;;;5038964;28;20464;-80
2024/01/09 01:46:05;;;;;;;20.85;5.30;;;-3.20;1.00;;;;;;5038620;28;20695;-81
2024/01/09 01:48:31;;;;;;;18.45;4.20;;;-3.10;1.00;;;;;;5038516;28;20164;-81
2024/01/09 01:50:58;;;;;;;22.15;5.72;;;-3.20;1.00;;;;;;5037959;28;20169;-81
2024/01/09 01:53:25;;;;;;;23.02;5.32;;;-3.30;1.00;;;;;;5038099;28;20165;-81
2024/01/09 01:55:50;;;;;;;22.10;5.05;;;-3.30;1.00;;;;;;5037985;28;20275;-81
2024/01/09 01:58:16;;;;;;;20.47;5.03;;;-3.40;1.00;;;;;;5038233;28;20224;-81
2024/01/09 02:00:42;;;;;;;24.83;5.50;;;-3.40;1.00;;;;;;5038639;28;20264;-81
2024/01/09 02:03:12;;;;;;;22.30;4.87;;;-3.40;1.00;;;;;;5038329;28;20497;-81
2024/01/09 02:05:39;;;;;;;20.85;5.32;;;-3.60;1.00;;;;;;5020068;28;20434;-81
2024/01/09 02:08:05;;;;;;;20.20;4.70;;;-3.60;1.00;;;;;;5038037;28;20204;-81
2024/01/09 02:10:31;;;;;;;24.33;5.53;;;-3.70;1.00;;;;;;5020485;28;20183;-81
2024/01/09 02:12:56;;;;;;;19.17;4.70;;;-3.70;1.00;;;;;;5038306;28;20160;-81
2024/01/09 02:15:22;;;;;;;19.83;5.57;;;-3.70;1.00;;;;;;5037821;28;20167;-81
2024/01/09 02:17:48;;;;;;;20.83;4.37;;;-3.80;1.00;;;;;;5037743;28;20198;-81
2024/01/09 02:20:13;;;;;;;18.50;4.33;;;-3.80;1.00;;;;;;5038016;28;20230;-81
2024/01/09 02:22:39;;;;;;;20.97;5.57;;;-3.90;1.00;;;;;;5037663;28;20164;-81
2024/01/09 02:25:05;;;;;;;20.30;5.43;;;-3.80;1.00;;;;;;5038054;28;20176;-81
2024/01/09 02:27:50;;;;;;;19.65;4.88;;;-4.00;1.00;;;;;;5038000;28;20250;-81
2024/01/09 02:30:16;;;;;;;27.10;6.32;;;-4.10;1.00;;;;;;5036555;28;20151;-81
2024/01/09 02:32:43;;;;;;;21.20;5.30;;;-4.20;1.00;;;;;;5019869;28;20172;-81
2024/01/09 02:35:08;;;;;;;25.65;5.63;;;-4.20;1.00;;;;;;5020115;28;20642;-81
2024/01/09 02:37:34;;;;;;;19.53;5.00;;;-4.20;1.00;;;;;;5019540;28;20222;-81
2024/01/09 02:40:00;;;;;;;20.73;4.97;;;-4.30;1.00;;;;;;5037451;28;20465;-81
2024/01/09 02:42:27;;;;;;;18.85;4.90;;;-4.30;1.00;;;;;;5037574;28;20255;-81
2024/01/09 02:44:55;;;;;;;20.33;5.43;;;-4.40;1.00;;;;;;5019466;28;20179;-81
2024/01/09 02:47:25;;;;;;;21.00;5.45;;;-4.40;1.00;;;;;;5037036;28;20219;-82
2024/01/09 02:49:51;;;;;;;22.58;6.25;;;-4.40;1.00;;;;;;5019623;28;20199;-82
2024/01/09 02:52:19;;;;;;;20.17;5.10;;;-4.50;1.00;;;;;;5037218;28;20164;-81
2024/01/09 02:54:45;;;;;;;20.70;5.45;;;-4.50;1.00;;;;;;5037910;28;20179;-82
2024/01/09 02:57:12;;;;;;;20.20;5.93;;;-4.50;1.00;;;;;;5036987;28;20187;-81
2024/01/09 02:59:38;;;;;;;21.40;4.68;;;-4.50;1.00;;;;;;5037033;28;20406;-81
2024/01/09 03:02:05;;;;;;;22.75;6.03;;;-4.60;1.00;;;;;;5019663;28;20180;-81
2024/01/09 03:04:31;;;;;;;24.58;6.28;;;-4.60;1.00;;;;;;5037241;28;20216;-81
2024/01/09 03:06:57;;;;;;;26.38;6.15;;;-4.70;1.00;;;;;;5019233;28;20203;-81
2024/01/09 03:09:22;;;;;;;24.73;6.57;;;-4.60;1.00;;;;;;5018957;28;20669;-81
2024/01/09 03:11:48;;;;;;;20.53;5.53;;;-4.60;1.00;;;;;;5037063;28;20184;-80
2024/01/09 03:14:14;;;;;;;23.53;7.00;;;-4.70;1.00;;;;;;5036965;28;20168;-81
2024/01/09 03:16:40;;;;;;;25.42;5.72;;;-4.70;1.00;;;;;;5036317;28;20241;-81
2024/01/09 03:19:06;;;;;;;23.20;6.57;;;-4.80;1.00;;;;;;5036961;28;20167;-81
2024/01/09 03:21:31;;;;;;;24.00;5.90;;;-4.80;1.00;;;;;;5036892;28;20163;-81
2024/01/09 03:23:57;;;;;;;21.40;5.50;;;-4.80;1.00;;;;;;5018790;28;20171;-81
2024/01/09 03:26:23;;;;;;;20.40;5.67;;;-4.90;1.00;;;;;;5036402;28;20236;-81
2024/01/09 03:28:49;;;;;;;22.17;6.63;;;-4.90;1.00;;;;;;5018603;28;20938;-81
2024/01/09 03:31:21;;;;;;;24.63;6.70;;;-4.90;1.00;;;;;;5036899;28;20411;-81
2024/01/09 03:33:47;;;;;;;21.27;6.10;;;-4.90;1.00;;;;;;5036303;28;20195;-82
2024/01/09 03:36:13;;;;;;;22.67;6.88;;;-4.90;1.00;;;;;;5018708;28;20676;-81
2024/01/09 03:38:42;;;;;;;21.60;5.87;;;-5.00;1.00;;;;;;5036093;28;20186;-82
2024/01/09 03:41:08;;;;;;;22.25;5.20;;;-5.10;1.00;;;;;;5036193;28;20177;-81
2024/01/09 03:43:34;;;;;;;22.67;5.80;;;-5.00;1.00;;;;;;5036110;28;20246;-82
2024/01/09 03:45:59;;;;;;;24.90;6.27;;;-5.00;1.00;;;;;;5036255;28;20203;-81
2024/01/09 03:48:25;;;;;;;22.60;5.50;;;-5.00;1.00;;;;;;5018548;28;20407;-82
2024/01/09 03:50:51;;;;;;;21.90;5.27;;;-5.00;1.00;;;;;;5036518;28;20170;-80
2024/01/09 03:53:17;;;;;;;24.70;6.53;;;-5.10;1.00;;;;;;5036085;28;20407;-82
2024/01/09 03:55:43;;;;;;;20.33;5.33;;;-5.10;1.00;;;;;;5036408;28;20407;-82
2024/01/09 03:58:11;;;;;;;22.25;5.95;;;-5.10;1.00;;;;;;5036463;28;20400;-82
2024/01/09 04:00:37;;;;;;;20.50;6.00;;;-5.00;1.00;;;;;;5018558;28;20166;-82
2024/01/09 04:03:04;;;;;;;23.40;7.30;;;-5.10;1.00;;;;;;5018472;28;20175;-81
2024/01/09 04:05:30;;;;;;;21.15;6.03;;;-5.10;1.00;;;;;;5035834;28;20234;-81
2024/01/09 04:07:56;;;;;;;22.13;5.63;;;-5.10;1.00;;;;;;5018818;28;20171;-82
2024/01/09 04:10:21;;;;;;;22.53;6.07;;;-5.10;1.00;;;;;;5035815;28;20402;-82
2024/01/09 04:12:47;;;;;;;23.30;6.60;;;-5.10;1.00;;;;;;5035811;28;20212;-81
2024/01/09 04:15:13;;;;;;;20.70;5.40;;;-5.10;1.00;;;;;;5035602;28;20180;-81
2024/01/09 04:17:39;;;;;;;23.33;6.97;;;-5.20;1.00;;;;;;5018397;28;20572;-81
2024/01/09 04:20:05;;;;;;;20.17;5.20;;;-5.20;1.00;;;;;;5036210;28;20166;-81
2024/01/09 04:22:31;;;;;;;22.13;5.82;;;-5.20;1.00;;;;;;5017982;28;20172;-82
2024/01/09 04:24:57;;;;;;;23.00;6.20;;;-5.20;1.00;;;;;;5018255;28;20170;-82
2024/01/09 04:27:23;;;;;;;22.83;5.03;;;-5.30;1.00;;;;;;5017799;28;20452;-81
2024/01/09 04:29:48;;;;;;;21.17;5.32;;;-5.30;1.00;;;;;;5035513;28;20397;-82
2024/01/09 04:32:14;;;;;;;22.87;6.07;;;-5.20;1.00;;;;;;5035368;28;20169;-81
2024/01/09 04:34:39;;;;;;;19.83;5.90;;;-5.20;1.00;;;;;;5035580;28;20531;-82
2024/01/09 04:37:05;;;;;;;22.47;6.40;;;-5.00;1.00;;;;;;5018168;28;20194;-81
2024/01/09 04:39:31;;;;;;;23.23;5.57;;;-4.90;1.00;;;;;;5035556;28;20171;-81
2024/01/09 04:41:57;;;;;;;23.00;6.03;;;-4.70;1.00;;;;;;5035726;28;20170;-80
2024/01/09 04:44:22;;;;;;;25.60;6.60;;;-4.70;1.00;;;;;;5035868;28;20170;-81
2024/01/09 04:46:48;;;;;;;23.17;5.67;;;-4.60;1.00;;;;;;5036042;28;20974;-82
2024/01/09 04:49:14;;;;;;;25.13;5.70;;;-4.50;1.00;;;;;;5035435;28;20166;-81
2024/01/09 04:51:40;;;;;;;21.43;5.50;;;-4.50;1.00;;;;;;5035339;28;20163;-81
2024/01/09 04:54:06;;;;;;;28.15;6.63;;;-4.40;1.00;;;;;;5039565;28;20168;-81
2024/01/09 04:56:32;;;;;;;22.93;5.60;;;-4.50;1.00;;;;;;5022211;28;20669;-81
2024/01/09 04:58:57;;;;;;;24.57;5.23;;;-4.50;1.00;;;;;;5039444;28;20171;-82
2024/01/09 05:01:23;;;;;;;23.07;5.17;;;-4.50;1.00;;;;;;5039594;28;20175;-82
2024/01/09 05:03:50;;;;;;;20.77;4.77;;;-4.50;1.00;;;;;;5039226;28;20198;-81
2024/01/09 05:06:19;;;;;;;21.15;5.40;;;-4.50;1.00;;;;;;5038861;28;20469;-82
2024/01/09 05:08:46;;;;;;;23.90;6.20;;;-4.50;1.00;;;;;;5039350;28;20255;-81
2024/01/09 05:11:11;;;;;;;22.90;5.63;;;-4.60;1.00;;;;;;5039167;28;20659;-81
2024/01/09 05:13:37;;;;;;;19.67;4.80;;;-4.70;1.00;;;;;;5021077;28;20259;-82
2024/01/09 05:16:04;;;;;;;22.27;5.60;;;-4.70;1.00;;;;;;5039194;28;20430;-81
2024/01/09 05:18:30;;;;;;;24.02;5.53;;;-4.80;1.00;;;;;;5039367;28;20168;-81
2024/01/09 05:20:59;;;;;;;27.75;5.85;;;-4.90;1.00;;;;;;5021372;28;20172;-81
2024/01/09 05:23:25;;;;;;;20.75;5.40;;;-4.80;1.00;;;;;;5038835;28;20547;-81
2024/01/09 05:25:50;;;;;;;22.27;5.95;;;-4.80;1.00;;;;;;5038832;28;20261;-82
2024/01/09 05:28:16;;;;;;;22.13;5.33;;;-4.90;1.00;;;;;;5021846;28;20273;-82
2024/01/09 05:30:42;;;;;;;20.57;5.40;;;-5.00;1.00;;;;;;5039336;28;20162;-81
2024/01/09 05:33:08;;;;;;;21.58;5.68;;;-4.90;1.00;;;;;;5038972;28;20176;-82
2024/01/09 05:35:34;;;;;;;23.80;6.10;;;-4.90;1.00;;;;;;5039109;28;20167;-81
2024/01/09 05:38:02;;;;;;;24.43;5.90;;;-5.00;1.00;;;;;;5021013;28;20254;-82
2024/01/09 05:40:28;;;;;;;21.90;5.70;;;-5.00;1.00;;;;;;5038961;28;20603;-82
2024/01/09 05:42:54;;;;;;;23.17;5.70;;;-4.90;1.00;;;;;;5038659;28;20173;-82
2024/01/09 05:45:19;;;;;;;21.10;5.10;;;-4.80;1.00;;;;;;5039403;28;20248;-82
2024/01/09 05:47:45;;;;;;;20.50;5.43;;;-4.80;1.00;;;;;;5038549;28;20238;-81
2024/01/09 05:50:11;;;;;;;23.00;6.47;;;-4.80;1.00;;;;;;5039108;28;20167;-82
2024/01/09 05:52:38;;;;;;;23.93;5.83;;;-4.80;1.00;;;;;;5038406;28;20186;-82
2024/01/09 05:55:05;;;;;;;23.30;5.53;;;-4.80;1.00;;;;;;5038686;28;20164;-82
2024/01/09 05:57:31;;;;;;;23.13;5.50;;;-4.80;1.00;;;;;;5020682;28;20282;-82
2024/01/09 05:59:57;;;;;;;20.60;5.13;;;-4.80;1.00;;;;;;5038589;28;20164;-82
2024/01/09 06:02:23;;;;;;;23.27;5.75;;;-4.80;1.00;;;;;;5038790;28;20567;-82
2024/01/09 06:04:49;;;;;;;22.17;5.78;;;-4.80;1.00;;;;;;5038291;28;20187;-81
2024/01/09 06:07:16;;;;;;;23.93;6.27;;;-4.90;1.00;;;;;;5038415;28;20210;-81
2024/01/09 06:09:42;;;;;;;23.67;4.82;;;-4.90;1.00;;;;;;5038305;28;20159;-81
2024/01/09 06:12:08;;;;;;;23.27;5.80;;;-5.00;1.00;;;;;;5020327;28;20225;-81
2024/01/09 06:14:34;;;;;;;29.73;5.97;;;-5.00;1.00;;;;;;5020850;28;20180;-81
2024/01/09 06:16:59;;;;;;;24.23;5.97;;;-4.90;1.00;;;;;;5038285;28;20437;-82
2024/01/09 06:19:26;;;;;;;22.77;6.30;;;-4.80;1.00;;;;;;5038343;28;20258;-79
2024/01/09 06:21:52;;;;;;;24.42;5.70;;;-4.80;1.00;;;;;;5037949;28;20174;-80
2024/01/09 06:24:18;;;;;;;22.83;6.33;;;-4.80;1.00;;;;;;5037876;28;20171;-82
2024/01/09 06:26:43;;;;;;;22.73;7.10;;;-4.80;1.00;;;;;;5037464;28;20229;-81
2024/01/09 06:29:10;;;;;;;24.20;7.43;;;-4.90;1.00;;;;;;5037816;28;20158;-81
2024/01/09 06:31:35;;;;;;;24.30;7.40;;;-5.00;1.00;;;;;;5020264;28;20930;-82
2024/01/09 06:34:01;;;;;;;23.67;6.73;;;-5.00;1.00;;;;;;5038665;28;20188;-82
2024/01/09 06:36:26;;;;;;;24.40;6.70;;;-5.00;1.00;;;;;;5038220;28;20192;-82
2024/01/09 06:38:52;;;;;;;21.97;6.07;;;-5.00;1.00;;;;;;5038794;28;20220;-82
2024/01/09 06:41:18;;;;;;;23.67;6.57;;;-5.00;1.00;;;;;;5038909;28;20194;-82
2024/01/09 06:43:44;;;;;;;26.97;6.90;;;-5.00;1.00;;;;;;5038009;28;20166;-82
2024/01/09 06:46:10;;;;;;;27.90;6.87;;;-5.10;1.00;;;;;;5037949;28;20756;-82
2024/01/09 06:48:35;;;;;;;26.88;7.75;;;-5.10;1.00;;;;;;5037529;28;20433;-82
2024/01/09 06:51:01;;;;;;;27.90;7.40;;;-5.20;1.00;;;;;;5019447;28;20168;-82
2024/01/09 06:53:27;;;;;;;23.93;7.70;;;-5.30;1.00;;;;;;5038202;28;20164;-82
2024/01/09 06:55:52;;;;;;;20.37;6.10;;;-5.20;1.00;;;;;;5037723;28;20266;-82
2024/01/09 06:58:18;;;;;;;24.60;7.30;;;-5.10;1.00;;;;;;5037378;28;20169;-82
2024/01/09 07:00:44;;;;;;;25.50;7.23;;;-5.10;1.00;;;;;;5020010;28;20221;-82
2024/01/09 07:03:10;;;;;;;26.03;7.73;;;-5.00;1.00;;;;;;5020203;28;20633;-82
2024/01/09 07:05:36;;;;;;;25.05;6.93;;;-5.00;1.00;;;;;;5037208;28;20425;-82
2024/01/09 07:08:03;;;;;;;25.17;7.50;;;-4.90;1.00;;;;;;5019663;28;20214;-82
2024/01/09 07:10:29;;;;;;;25.65;8.57;;;-5.00;1.00;;;;;;5037829;28;20164;-82
2024/01/09 07:12:54;;;;;;;28.35;8.20;;;-4.90;1.00;;;;;;5037721;28;20176;-82
2024/01/09 07:15:23;;;;;;;23.90;8.10;;;-4.80;1.00;;;;;;5036577;28;20201;-82
2024/01/09 07:17:49;;;;;;;23.85;7.60;;;-4.70;1.00;;;;;;5037462;28;20704;-82
2024/01/09 07:20:15;;;;;;;24.83;7.77;;;-4.70;1.00;;;;;;5036914;28;20175;-82
2024/01/09 07:22:40;;;;;;;25.95;8.18;;;-4.60;1.00;;;;;;5019079;28;20176;-82
2024/01/09 07:25:07;;;;;;;28.03;7.87;;;-4.60;1.00;;;;;;5037314;28;20179;-82
2024/01/09 07:27:34;;;;;;;23.40;7.03;;;-4.60;1.00;;;;;;5037146;28;20200;-82
2024/01/09 07:30:00;;;;;;;24.05;6.40;;;-4.60;1.00;;;;;;5036968;28;20173;-82
2024/01/09 07:32:26;;;;;;;26.45;7.13;;;-4.60;1.00;;;;;;5019618;28;20278;-82
2024/01/09 07:34:52;;;;;;;26.97;7.70;;;-4.70;1.00;;;;;;5019487;28;20192;-82
2024/01/09 07:37:18;;;;;;;30.40;10.47;;;-4.80;1.00;;;;;;5037184;28;20418;-83
2024/01/09 07:39:43;;;;;;;25.30;7.80;;;-4.70;1.00;;;;;;5020101;28;20465;-83
2024/01/09 07:42:13;;;;;;;26.00;7.37;;;-4.80;1.00;;;;;;5036950;28;20550;-82
2024/01/09 07:44:39;;;;;;;24.67;7.00;;;-4.90;1.00;;;;;;5037914;28;20180;-82
2024/01/09 07:47:05;;;;;;;25.80;7.33;;;-4.90;1.00;;;;;;5037155;28;20268;-83
2024/01/09 07:49:30;;;;;;;27.67;6.97;;;-4.90;1.00;;;;;;5037028;28;20951;-82
2024/01/09 07:51:56;;;;;;;26.70;7.40;;;-4.80;1.00;;;;;;5036825;28;20168;-82
2024/01/09 07:54:22;;;;;;;23.70;6.50;;;-4.70;1.00;;;;;;5037152;28;20524;-83
2024/01/09 07:56:47;;;;;;;26.00;7.87;;;-4.70;1.00;;;;;;5036977;28;20695;-83
2024/01/09 07:59:13;;;;;;;27.40;6.43;;;-4.70;1.00;;;;;;5019060;28;20176;-82
2024/01/09 08:01:39;;;;;;;21.73;6.17;;;-4.60;1.00;;;;;;5036531;28;20198;-82
2024/01/09 08:04:06;;;;;;;41.83;6.20;;;-4.60;1.00;;;;;;5018273;28;20592;-82
2024/01/09 08:06:32;;;;;;;24.83;6.78;;;-4.60;1.00;;;;;;5036041;28;20210;-82
2024/01/09 08:08:58;;;;;;;26.13;7.03;;;-4.60;1.00;;;;;;5036022;28;20776;-82
2024/01/09 08:11:23;;;;;;;22.00;6.13;;;-4.50;1.00;;;;;;5018902;28;20415;-82
2024/01/09 08:13:49;;;;;;;24.20;6.50;;;-4.50;1.00;;;;;;5036007;28;20168;-82
2024/01/09 08:16:15;;;;;;;23.37;6.00;;;-4.50;1.00;;;;;;5036412;28;20670;-82
2024/01/09 08:18:40;;;;;;;21.37;6.13;;;-4.50;1.00;;;;;;5019355;28;20266;-82
2024/01/09 08:21:06;;;;;;;23.23;6.90;;;-4.40;1.00;;;;;;5035947;28;20178;-82
2024/01/09 08:23:32;;;;;;;26.80;7.03;;;-4.40;1.00;;;;;;5018583;28;20666;-82
2024/01/09 08:25:57;;;;;;;26.07;6.93;;;-4.40;1.00;;;;;;5036531;28;20461;-82
2024/01/09 08:28:23;;;;;;;25.07;6.03;;;-4.30;1.00;;;;;;5035505;28;20168;-82
2024/01/09 08:30:49;;;;;;;24.23;6.77;;;-4.30;1.00;;;;;;5036762;28;20628;-82
2024/01/09 08:33:15;;;;;;;20.20;6.43;;;-4.20;1.00;;;;;;5036796;28;20410;-83
2024/01/09 08:35:40;;;;;;;22.63;6.40;;;-4.30;1.00;;;;;;5037007;28;20243;-83
2024/01/09 08:38:06;;;;;;;23.67;7.30;;;-4.20;1.00;;;;;;5036809;28;20168;-82
2024/01/09 08:40:34;;;;;;;23.83;6.47;;;-4.30;1.00;;;;;;5036998;28;20179;-83
2024/01/09 08:43:00;;;;;;;21.75;6.97;;;-4.30;1.00;;;;;;5036742;28;20617;-82
2024/01/09 08:45:26;;;;;;;20.85;5.10;;;-4.30;1.00;;;;;;5036857;28;20163;-83
2024/01/09 08:47:52;;;;;;;25.33;7.37;;;-4.20;1.00;;;;;;5036640;28;20560;-82
2024/01/09 08:50:17;;;;;;;27.30;7.03;;;-4.20;1.00;;;;;;5036496;28;20164;-82
2024/01/09 08:52:43;;;;;;;22.37;5.90;;;-4.10;1.00;;;;;;5036679;28;20163;-82
2024/01/09 08:55:09;;;;;;;21.70;5.73;;;-4.10;1.00;;;;;;5036810;28;20159;-82
2024/01/09 08:57:34;;;;;;;24.53;7.50;;;-4.10;1.00;;;;;;5018270;28;20224;-82
2024/01/09 09:00:00;;;;;;;26.03;7.60;;;-4.00;1.00;;;;;;5036729;28;20413;-82
2024/01/09 09:02:26;;;;;;;23.70;6.60;;;-4.00;1.00;;;;;;5036015;28;20822;-82
2024/01/09 09:04:51;;;;;;;24.40;8.43;;;-4.00;1.00;;;;;;5035672;28;20226;-82
2024/01/09 09:07:20;;;;;;;26.20;7.80;;;-4.00;1.00;;;;;;5018165;28;20225;-82
2024/01/09 09:09:46;;;;;;;27.83;7.07;;;-3.90;1.00;;;;;;5036176;28;20240;-82
2024/01/09 09:12:12;;;;;;;25.50;6.70;;;-3.90;1.00;;;;;;5035997;28;20236;-82
2024/01/09 09:14:37;;;;;;;30.03;6.47;;;-4.00;1.00;;;;;;5035745;28;20614;-82
2024/01/09 09:17:03;;;;;;;21.40;6.40;;;-3.90;1.00;;;;;;5035373;28;20558;-82
2024/01/09 09:19:31;;;;;;;23.02;5.80;;;-3.80;1.00;;;;;;5035737;28;20183;-82
2024/01/09 09:21:57;;;;;;;22.15;6.90;;;-3.80;1.00;;;;;;5018648;28;20176;-82
2024/01/09 09:24:23;;;;;;;22.92;6.55;;;-3.80;1.00;;;;;;5035970;28;20185;-82
2024/01/09 09:26:49;;;;;;;20.83;5.77;;;-3.80;1.00;;;;;;5036029;28;20200;-82
2024/01/09 09:29:14;;;;;;;23.00;5.50;;;-3.80;1.00;;;;;;5035454;28;20492;-82
2024/01/09 09:31:40;;;;;;;23.07;6.57;;;-3.70;1.00;;;;;;5036019;28;20160;-81
2024/01/09 09:34:06;;;;;;;25.40;6.00;;;-3.60;1.00;;;;;;5017705;28;20541;-82
2024/01/09 09:36:32;;;;;;;22.10;6.22;;;-3.60;1.00;;;;;;5035242;28;20194;-82
2024/01/09 09:38:58;;;;;;;24.57;6.57;;;-3.60;1.00;;;;;;5036444;28;20173;-82
2024/01/09 09:41:23;;;;;;;22.90;6.33;;;-3.50;1.00;;;;;;5039012;28;20247;-82
2024/01/09 09:43:55;;;;;;;25.93;7.13;;;-3.50;1.00;;;;;;5038879;28;20206;-81
2024/01/09 09:46:30;;;;;;;21.95;5.95;;;-3.40;1.00;;;;;;5039028;28;20953;-82
2024/01/09 09:48:59;;;;;;;23.30;6.80;;;-3.40;1.00;;;;;;5038646;28;20643;-82
2024/01/09 09:51:26;;;;;;;25.88;8.05;;;-3.40;1.00;;;;;;5038388;28;20229;-82
2024/01/09 09:53:53;;;;;;;27.17;6.55;;;-3.30;1.00;;;;;;5020464;28;20171;-82
2024/01/09 09:56:19;;;;;;;25.27;7.32;;;-3.30;1.00;;;;;;5038857;28;20596;-82
2024/01/09 09:58:45;;;;;;;24.48;7.10;;;-3.20;1.00;;;;;;5038904;28;20174;-82
2024/01/09 10:01:12;;;;;;;27.60;5.90;;;-3.20;1.00;;;;;;5038691;28;20646;-82
2024/01/09 10:03:55;;;;;;;24.17;6.47;;;-3.10;1.00;;;;;;5038459;28;20168;-82
2024/01/09 10:06:22;;;;;;;22.58;5.90;;;-3.10;1.00;;;;;;5038132;28;20233;-81
2024/01/09 10:08:51;;;;;;;26.05;6.60;;;-3.00;1.00;;;;;;5038472;28;20171;-82
2024/01/09 10:11:17;;;;;;;21.35;6.10;;;-3.00;1.00;;;;;;5020941;28;20187;-82
2024/01/09 10:13:43;;;;;;;22.10;6.90;;;-2.90;1.00;;;;;;5020301;28;20167;-82
2024/01/09 10:16:09;;;;;;;22.40;6.18;;;-2.80;1.00;;;;;;5020583;28;20862;-82
2024/01/09 10:18:35;;;;;;;20.60;5.20;;;-2.80;1.00;;;;;;5038497;28;20629;-82
2024/01/09 10:21:02;;;;;;;27.23;6.10;;;-2.80;1.00;;;;;;5038276;28;20171;-82
2024/01/09 10:23:29;;;;;;;22.75;7.25;;;-2.70;1.00;;;;;;5038551;28;20634;-82
2024/01/09 10:25:55;;;;;;;22.73;6.88;;;-2.50;1.00;;;;;;5038138;28;20225;-81
2024/01/09 10:28:22;;;;;;;24.60;6.75;;;-2.60;1.00;;;;;;5038016;28;20172;-82
2024/01/09 10:30:52;;;;;;;23.90;6.20;;;-2.50;1.00;;;;;;5038934;28;20242;-82
2024/01/09 10:33:17;;;;;;;20.95;5.15;;;-2.50;1.00;;;;;;5037909;28;20172;-82
2024/01/09 10:35:43;;;;;;;23.80;6.50;;;-2.50;1.00;;;;;;5037674;28;20164;-82
2024/01/09 10:38:10;;;;;;;23.50;5.80;;;-2.50;1.00;;;;;;5019977;28;20180;-82
2024/01/09 10:40:36;;;;;;;25.55;6.40;;;-2.50;1.00;;;;;;5020216;28;20171;-82
2024/01/09 10:43:02;;;;;;;20.35;5.45;;;-2.40;1.00;;;;;;5038188;28;20255;-82
2024/01/09 10:45:31;;;;;;;24.10;5.90;;;-2.40;1.00;;;;;;5037604;28;20164;-82
2024/01/09 10:47:58;;;;;;;22.67;5.53;;;-2.20;1.00;;;;;;5020019;28;20246;-82
2024/01/09 10:50:24;;;;;;;23.73;6.35;;;-2.20;1.00;;;;;;5037082;28;20637;-82
2024/01/09 10:52:51;;;;;;;18.73;5.50;;;-2.10;1.00;;;;;;5038067;28;20201;-81
2024/01/09 10:55:18;;;;;;;21.40;5.85;;;-2.10;1.00;;;;;;5037244;28;20185;-81
2024/01/09 10:57:45;;;;;;;20.15;5.60;;;-2.00;1.00;;;;;;5037316;28;20624;-81
2024/01/09 11:00:12;;;;;;;22.60;6.00;;;-2.00;1.00;;;;;;5037556;28;20629;-81
2024/01/09 11:02:38;;;;;;;19.92;5.15;;;-1.80;1.00;;;;;;5019913;28;20242;-82
2024/01/09 11:05:10;;;;;;;28.25;7.18;;;-1.80;1.00;;;;;;5037017;28;20180;-81
2024/01/09 11:07:37;;;;;;;21.67;5.80;;;-1.70;1.00;;;;;;5036840;28;20703;-81
2024/01/09 11:10:04;;;;;;;22.70;5.85;;;-1.70;1.00;;;;;;5036995;28;20165;-82
2024/01/09 11:12:45;;;;;;;23.58;6.20;;;-1.60;1.00;;;;;;5037325;28;20252;-81
2024/01/09 11:15:17;;;;;;;22.92;5.80;;;-1.50;1.00;;;;;;5019261;28;20177;-81
2024/01/09 11:17:47;;;;;;;19.52;4.72;;;-1.50;1.00;;;;;;5019156;28;20667;-81
2024/01/09 11:20:14;;;;;;;19.95;5.22;;;-1.50;1.00;;;;;;5036761;28;20201;-81
2024/01/09 11:22:41;;;;;;;25.77;5.32;;;-1.40;1.00;;;;;;5036759;28;20215;-81
2024/01/09 11:25:17;;;;;;;24.80;5.90;;;-1.30;1.00;;;;;;5036766;28;20208;-81
2024/01/09 11:27:50;;;;;;;22.75;5.65;;;-1.20;1.00;;;;;;5036379;28;20565;-81
2024/01/09 11:30:25;;;;;;;18.80;5.05;;;-1.20;1.00;;;;;;5019051;28;20165;-82
2024/01/09 11:32:51;;;;;;;21.33;4.75;;;-1.10;1.00;;;;;;5036951;28;20142;-81
2024/01/09 11:35:18;;;;;;;20.90;4.85;;;-1.10;1.00;;;;;;5036492;28;20164;-81
2024/01/09 11:37:49;;;;;;;25.42;4.03;;;-1.10;1.00;;;;;;5036296;28;20185;-81
2024/01/09 11:40:20;;;;;;;22.17;6.38;;;-1.10;1.00;;;;;;5036332;28;20150;-81
2024/01/09 11:42:48;;;;;;;23.67;5.50;;;-1.10;1.00;;;;;;5036814;28;20165;-81
2024/01/09 11:45:23;;;;;;;18.88;5.20;;;-1.00;1.00;;;;;;5036470;28;20166;-81
2024/01/09 11:47:50;;;;;;;18.70;5.22;;;-1.10;1.00;;;;;;5036273;28;20761;-81
2024/01/09 11:50:16;;;;;;;21.33;5.50;;;-1.10;1.00;;;;;;5019125;28;20173;-81
2024/01/09 11:52:43;;;;;;;18.17;4.65;;;-1.10;1.00;;;;;;5036406;28;20166;-81
2024/01/09 11:55:10;;;;;;;21.77;5.38;;;-1.10;1.00;;;;;;5035925;28;20646;-81
2024/01/09 11:57:38;;;;;;;21.90;4.78;;;-1.10;1.00;;;;;;5018700;28;20205;-82
2024/01/09 12:00:06;;;;;;;18.00;4.45;;;-1.00;1.00;;;;;;5036185;28;20164;-82
2024/01/09 12:02:36;;;;;;;22.30;5.45;;;-1.00;1.00;;;;;;5036689;28;20169;-81
2024/01/09 12:05:04;;;;;;;18.52;4.70;;;-0.90;1.00;;;;;;5018137;28;20190;-81
2024/01/09 12:07:33;;;;;;;21.85;5.03;;;-1.00;1.00;;;;;;5035454;28;20235;-81
2024/01/09 12:10:02;;;;;;;19.73;5.03;;;-1.00;1.00;;;;;;5035514;28;20158;-81
2024/01/09 12:12:28;;;;;;;21.30;5.35;;;-1.00;1.00;;;;;;5035996;28;20232;-81
2024/01/09 12:14:54;;;;;;;20.35;4.57;;;-0.90;1.00;;;;;;5035797;28;20166;-82
2024/01/09 12:17:33;;;;;;;21.40;5.35;;;-0.80;1.00;;;;;;5036100;28;20250;-81
2024/01/09 12:20:03;;;;;;;27.48;5.30;;;-0.90;1.00;;;;;;5035857;28;20146;-81
2024/01/09 12:22:31;;;;;;;18.92;5.22;;;-0.90;1.00;;;;;;5035368;28;20691;-81
2024/01/09 12:24:57;;;;;;;22.83;5.05;;;-0.90;1.00;;;;;;5035651;28;20654;-82
2024/01/09 12:27:24;;;;;;;24.60;5.90;;;-0.90;1.00;;;;;;5017635;28;20193;-81
2024/01/09 12:29:51;;;;;;;24.95;5.95;;;-0.80;1.00;;;;;;5035394;28;20405;-81
2024/01/09 12:32:18;;;;;;;23.20;6.10;;;-0.80;1.00;;;;;;5035296;28;20628;-81
2024/01/09 12:34:46;;;;;;;31.42;6.18;;;-0.80;1.00;;;;;;5035521;28;20232;-81
2024/01/09 12:37:12;;;;;;;21.45;4.93;;;-0.80;1.00;;;;;;5035301;28;20194;-81
2024/01/09 12:39:39;;;;;;;22.33;4.63;;;-0.80;1.00;;;;;;5035518;28;20180;-81
2024/01/09 12:42:13;;;;;;;19.35;4.47;;;-0.70;1.00;;;;;;5035394;28;20248;-81
2024/01/09 12:44:43;;;;;;;19.65;5.15;;;-0.70;1.00;;;;;;5035681;28;20154;-81